createdAt,value
2019-03-03T00:15:23.806Z,48.23
2019-03-03T00:19:09.946Z,46.55
2019-03-03T00:35:23.950Z,64.35
2019-03-03T00:38:20.590Z,62.50
2019-03-03T01:03:05.253Z,54.75
2019-03-03T01:36:30.038Z,40.55
2019-03-03T01:47:25.839Z,43.80
2019-03-03T01:53:59.266Z,45.60
2019-03-03T02:00:34.429Z,48.10
2019-03-03T02:04:14.688Z,39.42
2019-03-03T02:09:59.970Z,37.13
2019-03-03T02:16:11.729Z,38.23
2019-03-03T02:42:52.594Z,34.23
2019-03-03T03:21:02.327Z,23.22
2019-03-03T03:23:56.438Z,19.25
2019-03-03T03:26:33.741Z,23.02
2019-03-03T03:29:25.307Z,25.08
2019-03-03T03:31:59.986Z,22.60
2019-03-03T03:35:00.904Z,23.62
2019-03-03T03:37:54.761Z,19.62
2019-03-03T03:40:43.899Z,20.48
2019-03-03T03:43:32.018Z,21.40
2019-03-03T03:46:32.260Z,16.73
2019-03-03T03:49:18.941Z,18.30
2019-03-03T03:52:08.023Z,16.25
2019-03-03T03:54:54.905Z,18.02
2019-03-03T03:57:49.251Z,20.92
2019-03-03T04:00:37.367Z,20.45
2019-03-03T04:03:37.948Z,18.20
2019-03-03T04:06:14.976Z,20.57
2019-03-03T04:09:05.531Z,24.43
2019-03-03T04:11:56.889Z,14.68
2019-03-03T04:14:43.608Z,20.10
2019-03-03T04:17:30.421Z,18.80
2019-03-03T04:20:13.607Z,15.03
2019-03-03T04:22:49.112Z,11.83
2019-03-03T04:25:27.767Z,18.05
2019-03-03T04:28:11.154Z,14.73
2019-03-03T04:30:56.353Z,16.37
2019-03-03T04:33:57.187Z,14.10
2019-03-03T04:36:46.148Z,15.88
2019-03-03T04:39:23.084Z,12.53
2019-03-03T04:42:09.772Z,20.10
2019-03-03T04:44:47.049Z,21.95
2019-03-03T04:47:41.286Z,12.63
2019-03-03T04:50:17.409Z,16.52
2019-03-03T04:53:11.729Z,13.70
2019-03-03T04:56:02.756Z,11.85
2019-03-03T04:58:49.763Z,17.82
2019-03-03T05:01:36.595Z,14.65
2019-03-03T05:04:11.653Z,11.63
2019-03-03T05:07:05.854Z,14.03
2019-03-03T05:09:57.003Z,14.00
2019-03-03T05:12:43.734Z,13.18
2019-03-03T05:15:36.330Z,9.50
2019-03-03T05:18:24.508Z,16.95
2019-03-03T05:20:54.174Z,13.62
2019-03-03T05:23:23.803Z,13.93
2019-03-03T05:25:53.036Z,16.25
2019-03-03T05:28:22.417Z,12.15
2019-03-03T05:30:51.736Z,10.48
2019-03-03T05:33:21.126Z,16.57
2019-03-03T05:35:50.303Z,16.25
2019-03-03T05:38:19.635Z,16.07
2019-03-03T05:40:48.927Z,13.50
2019-03-03T05:43:18.129Z,13.45
2019-03-03T05:45:47.328Z,15.15
2019-03-03T05:48:16.507Z,14.78
2019-03-03T05:50:46.029Z,22.00
2019-03-03T05:53:15.514Z,16.55
2019-03-03T05:55:44.658Z,12.85
2019-03-03T05:58:13.815Z,9.05
2019-03-03T06:00:43.036Z,11.60
2019-03-03T06:03:12.257Z,16.60
2019-03-03T06:05:41.408Z,15.05
2019-03-03T06:08:10.592Z,17.35
2019-03-03T06:10:39.937Z,15.90
2019-03-03T06:13:09.192Z,18.25
2019-03-03T06:15:38.412Z,19.15
2019-03-03T06:18:07.612Z,26.15
2019-03-03T06:20:36.842Z,21.97
2019-03-03T06:23:06.148Z,25.65
2019-03-03T06:25:35.593Z,32.88
2019-03-03T06:28:06.544Z,33.60
2019-03-03T06:30:35.801Z,32.45
2019-03-03T06:33:05.228Z,37.55
2019-03-03T06:35:34.800Z,38.55
2019-03-03T06:38:03.995Z,34.85
2019-03-03T06:40:33.240Z,46.45
2019-03-03T06:43:02.397Z,35.95
2019-03-03T06:45:31.547Z,32.40
2019-03-03T06:48:03.256Z,35.35
2019-03-03T06:50:32.504Z,37.63
2019-03-03T06:53:01.839Z,31.85
2019-03-03T06:55:31.036Z,39.27
2019-03-03T06:58:00.611Z,32.78
2019-03-03T07:00:29.809Z,36.23
2019-03-03T07:02:59.025Z,25.45
2019-03-03T07:05:28.225Z,25.15
2019-03-03T07:07:59.707Z,25.32
2019-03-03T07:10:29.042Z,21.10
2019-03-03T07:13:00.711Z,22.45
2019-03-03T07:15:29.876Z,27.07
2019-03-03T07:17:58.948Z,17.10
2019-03-03T07:20:28.043Z,20.15
2019-03-03T07:22:57.343Z,18.75
2019-03-03T07:25:26.657Z,15.78
2019-03-03T07:27:55.736Z,16.40
2019-03-03T07:30:26.081Z,13.68
2019-03-03T07:33:12.987Z,15.78
2019-03-03T07:35:45.155Z,15.10
2019-03-03T07:38:14.358Z,16.35
2019-03-03T07:40:45.610Z,16.73
2019-03-03T07:43:17.455Z,15.53
2019-03-03T07:45:46.791Z,13.80
2019-03-03T07:48:16.022Z,13.78
2019-03-03T07:50:45.259Z,15.32
2019-03-03T07:53:14.368Z,16.52
2019-03-03T07:55:45.535Z,14.85
2019-03-03T07:58:14.580Z,22.75
2019-03-03T08:01:05.746Z,13.80
2019-03-03T08:03:34.947Z,14.80
2019-03-03T08:06:06.220Z,15.93
2019-03-03T08:08:35.324Z,16.25
2019-03-03T08:11:04.409Z,12.93
2019-03-03T08:13:34.670Z,14.90
2019-03-03T08:16:06.015Z,17.02
2019-03-03T08:18:35.064Z,14.75
2019-03-03T08:21:04.226Z,13.10
2019-03-03T08:23:33.390Z,16.62
2019-03-03T08:26:02.272Z,14.28
2019-03-03T08:28:31.248Z,13.53
2019-03-03T08:31:00.291Z,14.30
2019-03-03T08:33:29.559Z,15.08
2019-03-03T08:35:58.584Z,13.83
2019-03-03T08:38:27.639Z,13.22
2019-03-03T08:40:56.724Z,13.13
2019-03-03T08:43:54.082Z,16.48
2019-03-03T08:46:41.012Z,11.50
2019-03-03T08:49:33.639Z,12.60
2019-03-03T08:52:09.324Z,12.93
2019-03-03T08:55:04.415Z,13.60
2019-03-03T08:57:39.439Z,12.35
2019-03-03T09:00:36.780Z,19.30
2019-03-03T09:03:37.066Z,13.30
2019-03-03T09:06:21.320Z,13.95
2019-03-03T09:08:55.882Z,12.90
2019-03-03T09:11:46.943Z,11.03
2019-03-03T09:14:22.714Z,16.82
2019-03-03T09:17:11.832Z,13.30
2019-03-03T09:19:50.186Z,16.15
2019-03-03T09:22:30.706Z,14.40
2019-03-03T09:25:17.200Z,12.80
2019-03-03T09:28:05.231Z,12.35
2019-03-03T09:30:52.673Z,12.50
2019-03-03T09:33:36.828Z,12.43
2019-03-03T09:36:12.715Z,11.57
2019-03-03T09:39:09.965Z,11.40
2019-03-03T09:41:56.800Z,11.60
2019-03-03T09:44:43.301Z,14.43
2019-03-03T09:47:23.633Z,11.68
2019-03-03T09:50:11.641Z,12.53
2019-03-03T09:53:14.892Z,12.73
2019-03-03T09:56:12.149Z,12.15
2019-03-03T09:59:00.151Z,11.05
2019-03-03T10:01:36.539Z,9.93
2019-03-03T10:04:30.723Z,8.85
2019-03-03T10:07:17.538Z,9.83
2019-03-03T10:10:04.400Z,10.15
2019-03-03T10:12:52.639Z,10.20
2019-03-03T10:15:32.781Z,9.90
2019-03-03T10:18:17.236Z,10.25
2019-03-03T10:20:59.929Z,9.45
2019-03-03T10:23:45.283Z,9.65
2019-03-03T10:26:27.974Z,15.45
2019-03-03T10:29:16.666Z,9.65
2019-03-03T10:32:07.572Z,8.60
2019-03-03T10:34:53.943Z,10.35
2019-03-03T10:37:28.930Z,9.40
2019-03-03T10:40:05.779Z,9.53
2019-03-03T10:43:01.947Z,10.05
2019-03-03T10:45:41.338Z,9.20
2019-03-03T10:48:28.448Z,9.93
2019-03-03T10:51:36.035Z,13.35
2019-03-03T10:54:10.784Z,11.03
2019-03-03T10:56:45.837Z,11.53
2019-03-03T10:59:29.103Z,11.75
2019-03-03T11:02:17.508Z,12.98
2019-03-03T11:05:06.939Z,11.10
2019-03-03T11:08:04.834Z,12.03
2019-03-03T11:10:58.361Z,13.13
2019-03-03T11:14:06.662Z,13.10
2019-03-03T11:16:53.713Z,12.43
2019-03-03T11:19:30.099Z,10.38
2019-03-03T11:22:38.274Z,9.78
2019-03-03T11:25:25.478Z,11.35
2019-03-03T11:28:08.582Z,11.12
2019-03-03T11:31:08.098Z,11.33
2019-03-03T11:33:57.336Z,12.10
2019-03-03T11:36:39.976Z,12.78
2019-03-03T11:39:31.865Z,8.15
2019-03-03T11:42:28.717Z,11.90
2019-03-03T11:45:12.728Z,9.70
2019-03-03T11:47:49.543Z,11.80
2019-03-03T11:50:34.580Z,12.90
2019-03-03T11:53:15.628Z,11.68
2019-03-03T11:55:56.800Z,12.20
2019-03-03T11:58:35.639Z,11.53
2019-03-03T12:01:23.502Z,10.68
2019-03-03T12:04:10.448Z,15.85
2019-03-03T12:07:14.266Z,10.80
2019-03-03T12:10:08.914Z,10.08
2019-03-03T12:12:57.504Z,9.50
2019-03-03T12:15:44.991Z,9.18
2019-03-03T12:18:20.967Z,8.58
2019-03-03T12:21:01.883Z,7.65
2019-03-03T12:23:58.914Z,8.58
2019-03-03T12:26:53.331Z,8.60
2019-03-03T12:29:53.326Z,10.00
2019-03-03T12:32:41.539Z,7.75
2019-03-03T12:35:31.488Z,8.43
2019-03-03T12:38:07.277Z,9.05
2019-03-03T12:40:55.549Z,7.75
2019-03-03T12:43:44.028Z,8.73
2019-03-03T12:46:42.617Z,8.50
2019-03-03T12:52:56.624Z,8.55
2019-03-03T12:55:40.019Z,10.38
2019-03-03T12:58:28.326Z,9.90
2019-03-03T13:01:19.112Z,9.15
2019-03-03T13:04:13.259Z,9.90
2019-03-03T13:07:10.800Z,8.30
2019-03-03T13:13:10.487Z,8.00
2019-03-03T13:16:22.972Z,8.25
2019-03-03T13:19:10.446Z,8.80
2019-03-03T13:22:35.612Z,7.00
2019-03-03T13:25:33.681Z,10.10
2019-03-03T13:28:13.650Z,6.70
2019-03-03T13:31:05.082Z,7.28
2019-03-03T13:33:58.912Z,6.87
2019-03-03T13:36:50.041Z,6.87
2019-03-03T13:39:40.396Z,9.13
2019-03-03T13:42:27.228Z,7.35
2019-03-03T13:44:59.390Z,11.80
2019-03-03T13:47:29.141Z,8.33
2019-03-03T13:50:01.651Z,9.65
2019-03-03T13:52:30.965Z,7.92
2019-03-03T13:55:00.339Z,7.97
2019-03-03T13:57:29.598Z,7.17
2019-03-03T14:00:01.109Z,6.95
2019-03-03T14:02:30.535Z,7.97
2019-03-03T14:05:00.229Z,7.95
2019-03-03T14:07:34.116Z,7.40
2019-03-03T14:10:04.796Z,8.50
2019-03-03T14:12:57.619Z,8.40
2019-03-03T14:15:28.315Z,7.90
2019-03-03T14:18:00.523Z,8.30
2019-03-03T14:20:29.958Z,6.78
2019-03-03T14:23:02.075Z,7.95
2019-03-03T14:25:31.303Z,6.92
2019-03-03T14:28:00.496Z,6.95
2019-03-03T14:30:30.281Z,7.45
2019-03-03T14:33:03.546Z,5.75
2019-03-03T14:35:56.704Z,6.50
2019-03-03T14:38:25.821Z,4.80
2019-03-03T14:44:47.624Z,5.10
2019-03-03T14:58:08.341Z,4.08
2019-03-03T15:00:37.604Z,4.55
2019-03-03T15:03:07.906Z,4.05
2019-03-03T15:05:46.141Z,4.53
2019-03-03T15:12:10.096Z,3.95
2019-03-03T15:14:42.780Z,3.92
2019-03-03T15:20:01.981Z,3.58
2019-03-03T15:23:24.643Z,4.70
2019-03-03T15:29:32.123Z,4.97
2019-03-03T15:32:01.626Z,5.40
2019-03-03T15:34:32.484Z,5.10
2019-03-03T15:37:01.630Z,4.58
2019-03-03T15:39:30.836Z,5.20
2019-03-03T15:42:01.136Z,6.42
2019-03-03T15:44:30.329Z,6.50
2019-03-03T15:46:59.420Z,6.50
2019-03-03T15:49:28.687Z,6.40
2019-03-03T15:53:08.063Z,6.70
2019-03-03T15:56:19.602Z,6.45
2019-03-03T16:01:48.358Z,5.87
2019-03-03T16:05:02.085Z,6.42
2019-03-03T16:07:41.805Z,5.10
2019-03-03T16:10:13.560Z,6.33
2019-03-03T16:13:28.115Z,5.78
2019-03-03T16:16:01.896Z,5.75
2019-03-03T16:18:31.355Z,6.00
2019-03-03T16:21:00.702Z,5.65
2019-03-03T16:23:33.270Z,6.70
2019-03-03T16:26:41.494Z,5.60
2019-03-03T16:33:41.232Z,8.50
2019-03-03T16:42:42.729Z,8.18
2019-03-03T16:45:21.453Z,8.58
2019-03-03T16:48:13.800Z,10.45
2019-03-03T16:51:01.202Z,9.63
2019-03-03T16:53:35.313Z,9.88
2019-03-03T16:56:08.099Z,9.30
2019-03-03T16:58:57.776Z,9.40
2019-03-03T17:01:39.722Z,11.10
2019-03-03T17:04:19.369Z,10.13
2019-03-03T17:06:58.500Z,16.17
2019-03-03T17:09:46.947Z,13.40
2019-03-03T17:12:24.258Z,15.45
2019-03-03T17:14:53.018Z,18.45
2019-03-03T17:17:29.119Z,21.30
2019-03-03T17:22:48.968Z,19.48
2019-03-03T17:25:21.416Z,23.20
2019-03-03T17:27:54.303Z,23.27
2019-03-03T17:30:27.705Z,22.25
2019-03-03T17:32:59.660Z,20.08
2019-03-03T17:35:33.243Z,24.77
2019-03-03T17:38:05.333Z,23.85
2019-03-03T17:40:39.772Z,19.73
2019-03-03T17:46:35.570Z,18.67
2019-03-03T17:49:16.759Z,18.75
2019-03-03T17:54:36.817Z,16.17
2019-03-03T17:57:32.601Z,16.32
2019-03-03T18:00:01.549Z,17.27
2019-03-03T18:02:54.662Z,15.60
2019-03-03T18:05:27.213Z,14.70
2019-03-03T18:08:17.073Z,15.25
2019-03-03T18:10:48.821Z,14.00
2019-03-03T18:13:19.375Z,15.50
2019-03-03T18:15:49.049Z,15.35
2019-03-03T18:18:18.882Z,13.85
2019-03-03T18:20:48.744Z,15.05
2019-03-03T18:23:18.170Z,14.35
2019-03-03T18:28:41.317Z,16.12
2019-03-03T18:31:10.880Z,17.75
2019-03-03T18:33:40.639Z,17.17
2019-03-03T18:36:10.481Z,20.37
2019-03-03T18:38:39.773Z,14.98
2019-03-03T18:41:08.911Z,15.55
2019-03-03T18:43:39.291Z,16.70
2019-03-03T18:46:08.950Z,15.93
2019-03-03T18:48:38.367Z,20.43
2019-03-03T18:51:07.467Z,17.17
2019-03-03T18:53:36.538Z,19.50
2019-03-03T18:56:06.001Z,18.15
2019-03-03T18:58:35.509Z,18.10
2019-03-03T19:01:05.592Z,19.75
2019-03-03T19:03:34.959Z,19.57
2019-03-03T19:06:07.312Z,19.45
2019-03-03T19:08:36.769Z,21.23
2019-03-03T19:11:08.163Z,18.10
2019-03-03T19:13:37.688Z,17.67
2019-03-03T19:16:07.143Z,20.15
2019-03-03T19:18:36.576Z,17.73
2019-03-03T19:21:06.139Z,18.98
2019-03-03T19:23:38.706Z,20.25
2019-03-03T19:26:07.836Z,21.57
2019-03-03T19:28:39.847Z,23.12
2019-03-03T19:31:09.062Z,20.75
2019-03-03T19:33:44.907Z,29.67
2019-03-03T19:36:14.123Z,24.02
2019-03-03T19:38:44.623Z,26.75
2019-03-03T19:41:16.745Z,25.15
2019-03-03T19:44:05.072Z,23.92
2019-03-03T19:46:35.560Z,21.37
2019-03-03T19:49:04.918Z,25.72
2019-03-03T19:51:34.084Z,26.02
2019-03-03T19:54:03.650Z,26.00
2019-03-03T19:56:32.814Z,25.77
2019-03-03T19:59:01.942Z,22.52
2019-03-03T20:01:31.252Z,30.75
2019-03-03T20:04:00.530Z,31.42
2019-03-03T20:06:29.744Z,24.98
2019-03-03T20:08:58.774Z,32.15
2019-03-03T20:11:28.044Z,32.73
2019-03-03T20:13:57.092Z,28.95
2019-03-03T20:16:26.112Z,33.55
2019-03-03T20:18:56.134Z,25.35
2019-03-03T20:21:25.281Z,27.98
2019-03-03T20:26:45.190Z,31.62
2019-03-03T20:29:14.307Z,33.55
2019-03-03T20:31:44.744Z,29.65
2019-03-03T20:34:14.349Z,34.88
2019-03-03T20:36:43.801Z,37.65
2019-03-03T20:39:13.572Z,33.20
2019-03-03T20:41:42.840Z,34.20
2019-03-03T20:44:14.142Z,31.85
2019-03-03T20:46:44.205Z,38.28
2019-03-03T20:49:13.344Z,32.45
2019-03-03T20:51:42.813Z,32.58
2019-03-03T20:54:13.455Z,35.48
2019-03-03T20:56:42.613Z,39.63
2019-03-03T20:59:12.189Z,34.65
2019-03-03T21:01:41.390Z,40.33
2019-03-03T21:04:10.698Z,40.70
2019-03-03T21:06:39.741Z,34.05
2019-03-03T21:09:10.172Z,37.88
2019-03-03T21:11:39.393Z,37.05
2019-03-03T21:14:11.297Z,34.95
2019-03-03T21:16:40.481Z,34.43
2019-03-03T21:19:12.724Z,37.48
2019-03-03T21:21:41.789Z,38.58
2019-03-03T21:24:10.923Z,40.67
2019-03-03T21:26:40.293Z,29.67
2019-03-03T21:29:09.787Z,27.10
2019-03-03T21:31:39.311Z,31.35
2019-03-03T21:34:13.025Z,26.95
2019-03-03T21:36:40.151Z,32.50
2019-03-03T21:39:11.538Z,39.10
2019-03-03T21:41:40.827Z,32.48
2019-03-03T21:44:11.652Z,28.67
2019-03-03T21:47:00.115Z,27.93
2019-03-03T21:49:30.572Z,26.62
2019-03-03T21:51:59.835Z,34.50
2019-03-03T21:54:29.651Z,30.08
2019-03-03T21:57:01.595Z,27.50
2019-03-03T21:59:30.540Z,25.00
2019-03-03T22:02:00.065Z,29.27
2019-03-03T22:04:29.212Z,23.55
2019-03-03T22:06:58.186Z,28.92
2019-03-03T22:09:28.817Z,24.27
2019-03-03T22:11:58.076Z,22.58
2019-03-03T22:14:27.236Z,26.17
2019-03-03T22:16:56.304Z,31.17
2019-03-03T22:19:25.172Z,24.80
2019-03-03T22:21:54.726Z,22.35
2019-03-03T22:24:23.746Z,24.60
2019-03-03T22:26:52.709Z,19.75
2019-03-03T22:29:21.699Z,25.70
2019-03-03T22:31:51.175Z,19.30
2019-03-03T22:34:20.196Z,17.92
2019-03-03T22:36:49.370Z,24.40
2019-03-03T22:39:18.399Z,21.02
2019-03-03T22:41:47.636Z,18.50
2019-03-03T22:44:16.845Z,25.25
2019-03-03T22:46:46.042Z,18.42
2019-03-03T22:49:15.560Z,19.00
2019-03-03T22:51:44.677Z,18.07
2019-03-03T22:54:13.993Z,16.15
2019-03-03T22:56:43.054Z,13.90
2019-03-03T22:59:12.203Z,15.88
2019-03-03T23:01:42.891Z,17.42
2019-03-03T23:04:59.510Z,15.18
2019-03-03T23:07:39.673Z,20.60
2019-03-03T23:10:39.201Z,16.73
2019-03-03T23:13:26.647Z,17.87
2019-03-03T23:16:35.418Z,15.35
2019-03-03T23:19:44.468Z,13.90
2019-03-03T23:22:40.346Z,18.52
2019-03-03T23:25:59.248Z,15.08
2019-03-03T23:28:28.240Z,19.20
2019-03-03T23:30:57.851Z,17.67
2019-03-03T23:33:26.811Z,14.00
2019-03-03T23:35:55.879Z,12.07
2019-03-03T23:38:24.880Z,12.15
2019-03-03T23:40:53.801Z,16.55
2019-03-03T23:43:23.291Z,14.35
2019-03-03T23:45:52.308Z,13.05
2019-03-03T23:48:21.258Z,18.98
2019-03-03T23:50:50.166Z,14.63
2019-03-03T23:53:19.113Z,15.45
2019-03-03T23:55:48.067Z,17.42
2019-03-03T23:58:17.074Z,17.00
